Terminal Aerodrome Forecast
Issued by NWS

Home | Current Version | Previous Version | Text Only | Print | Product List | Glossary On
Versions: 1 2 3 4 5 6 7 8 9 10 11 12 13 14 15 16 17 18 19 20 21
000
FTUS43 KAPX 272337 AAF
TAFMBL
TAF AMD
KMBL 272337Z 2800/2824 16004KT P6SM VCSH OVC025
     FM280500 VRB03KT 2SM BR BKN020
     FM281200 31004KT P6SM BKN020
     FM281300 32005KT P6SM BKN040
     FM281400 32005KT P6SM SCT060=

USA.gov is the U.S. government's official web portal to all federal, state and local government web resources and services.